Time;durP1;ratioP1;P1;durP2;ratioP2;P2;SDS_P1;SDS_P2;PMS_P1;PMS_P2;Temp;Humidity;BMP_temperature;BMP_pressure;BME280_temperature;BME280_humidity;BME280_pressure;Samples;Min_cycle;Max_cycle;Signal;HPM_P1;HPM_P2
2021/10/01 00:00:30;;;;;;;15.40;14.20;;;11.00;99.90;;;;;;5060772;28;20847;-71
2021/10/01 00:02:57;;;;;;;15.73;14.47;;;10.90;99.90;;;;;;5064616;28;20451;-72
2021/10/01 00:05:24;;;;;;;15.37;14.37;;;10.90;99.90;;;;;;5059993;28;20466;-72
2021/10/01 00:07:52;;;;;;;16.20;14.70;;;10.90;99.90;;;;;;5059065;28;20462;-69
2021/10/01 00:10:21;;;;;;;14.70;13.83;;;10.90;99.90;;;;;;5058364;28;20470;-69
2021/10/01 00:12:49;;;;;;;16.50;14.90;;;11.00;99.90;;;;;;5060380;28;20533;-68
2021/10/01 00:15:16;;;;;;;15.17;13.83;;;11.00;99.90;;;;;;5063758;28;20968;-70
2021/10/01 00:17:45;;;;;;;14.67;13.53;;;11.00;99.90;;;;;;5059143;28;20451;-69
2021/10/01 00:20:13;;;;;;;15.57;14.40;;;10.90;99.90;;;;;;5054621;28;20494;-71
2021/10/01 00:22:41;;;;;;;15.90;14.43;;;10.90;99.90;;;;;;5059174;28;20980;-71
2021/10/01 00:25:09;;;;;;;16.20;14.90;;;10.90;99.90;;;;;;5061427;28;20456;-70
2021/10/01 00:27:37;;;;;;;16.70;15.10;;;10.90;99.90;;;;;;5059467;28;20942;-69
2021/10/01 00:30:07;;;;;;;17.30;15.53;;;10.80;99.90;;;;;;5063346;28;20508;-71
2021/10/01 00:32:35;;;;;;;17.30;14.67;;;10.70;99.90;;;;;;5063509;28;20466;-69
2021/10/01 00:35:04;;;;;;;15.20;14.20;;;10.60;99.90;;;;;;5064583;28;20462;-69
2021/10/01 00:37:32;;;;;;;16.40;15.20;;;10.50;99.90;;;;;;5052509;28;20462;-70
2021/10/01 00:39:59;;;;;;;17.90;16.10;;;10.30;99.90;;;;;;5057559;28;20487;-69
2021/10/01 00:42:26;;;;;;;16.43;15.10;;;10.30;99.90;;;;;;5060497;28;20481;-71
2021/10/01 00:44:54;;;;;;;16.93;15.23;;;10.20;99.90;;;;;;5059674;28;20451;-69
2021/10/01 00:47:21;;;;;;;17.83;15.53;;;10.10;99.90;;;;;;5061694;28;20474;-69
2021/10/01 00:49:48;;;;;;;16.53;15.13;;;10.10;99.90;;;;;;5062294;28;20808;-69
2021/10/01 00:52:19;;;;;;;19.70;15.30;;;10.00;99.90;;;;;;5060010;28;20454;-71
2021/10/01 00:54:46;;;;;;;18.03;16.50;;;9.90;99.90;;;;;;5055884;28;20464;-70
2021/10/01 00:57:14;;;;;;;17.57;15.97;;;9.90;99.90;;;;;;5059320;28;20739;-70
2021/10/01 00:59:41;;;;;;;17.07;15.57;;;9.80;99.90;;;;;;5061030;28;20980;-72
2021/10/01 01:02:09;;;;;;;16.13;14.80;;;9.70;99.90;;;;;;5059480;28;20883;-69
2021/10/01 01:04:41;;;;;;;17.33;15.73;;;9.70;99.90;;;;;;5062006;28;20549;-71
2021/10/01 01:07:17;;;;;;;15.90;14.67;;;9.70;99.90;;;;;;5057408;28;21404;-69
2021/10/01 01:09:51;;;;;;;17.13;15.60;;;9.60;99.90;;;;;;5066212;28;20937;-70
2021/10/01 01:12:37;;;;;;;15.97;14.70;;;9.60;99.90;;;;;;5063417;28;20494;-70
2021/10/01 01:15:09;;;;;;;16.03;14.60;;;9.60;99.90;;;;;;5060606;28;20468;-69
2021/10/01 01:17:44;;;;;;;16.67;15.27;;;9.60;99.90;;;;;;5058068;28;20480;-69
2021/10/01 01:20:16;;;;;;;16.43;15.23;;;9.50;99.90;;;;;;5053442;28;20495;-69
2021/10/01 01:22:53;;;;;;;16.37;15.30;;;9.50;99.90;;;;;;5055348;28;20899;-70
2021/10/01 01:25:44;;;;;;;23.27;15.87;;;9.40;99.90;;;;;;5064526;28;20485;-69
2021/10/01 01:28:20;;;;;;;23.10;15.73;;;9.40;99.90;;;;;;5060270;28;20454;-70
2021/10/01 01:30:51;;;;;;;16.40;15.10;;;9.40;99.90;;;;;;5057245;28;20465;-69
2021/10/01 01:33:22;;;;;;;16.93;15.47;;;9.30;99.90;;;;;;5052903;28;20462;-69
2021/10/01 01:35:52;;;;;;;21.60;16.20;;;9.20;99.90;;;;;;5059800;28;20533;-69
2021/10/01 01:38:25;;;;;;;18.47;16.87;;;9.20;99.90;;;;;;5060763;28;20471;-69
2021/10/01 01:40:58;;;;;;;18.77;16.30;;;9.20;99.90;;;;;;5059737;28;20446;-70
2021/10/01 01:43:26;;;;;;;17.37;15.77;;;9.20;99.90;;;;;;5058460;28;20476;-69
2021/10/01 01:45:54;;;;;;;17.50;15.83;;;9.10;99.90;;;;;;5057882;28;20464;-70
2021/10/01 01:48:23;;;;;;;17.23;15.93;;;9.10;99.90;;;;;;5068295;28;20458;-71
2021/10/01 01:50:52;;;;;;;17.17;15.83;;;9.10;99.90;;;;;;5059770;28;20462;-71
2021/10/01 01:53:21;;;;;;;17.33;16.03;;;9.10;99.90;;;;;;5059394;28;20470;-71
2021/10/01 01:55:49;;;;;;;17.40;16.10;;;9.10;99.90;;;;;;5063178;28;20461;-70
2021/10/01 01:58:18;;;;;;;18.07;16.07;;;9.10;99.90;;;;;;5061726;28;20455;-69
2021/10/01 02:00:47;;;;;;;17.97;15.93;;;9.00;99.90;;;;;;5056840;28;20981;-70
2021/10/01 02:03:16;;;;;;;17.93;16.10;;;9.00;99.90;;;;;;5061432;28;20471;-69
2021/10/01 02:05:46;;;;;;;19.13;17.13;;;9.00;99.90;;;;;;5066795;28;20493;-70
2021/10/01 02:08:14;;;;;;;17.20;16.10;;;9.00;99.90;;;;;;5064877;28;20955;-68
2021/10/01 02:10:41;;;;;;;17.00;15.60;;;9.00;99.90;;;;;;5062338;28;20474;-69
2021/10/01 02:13:10;;;;;;;16.70;15.30;;;9.00;99.90;;;;;;5066351;28;20528;-69
2021/10/01 02:15:40;;;;;;;16.60;15.57;;;9.00;99.90;;;;;;5062804;28;20566;-69
2021/10/01 02:18:09;;;;;;;16.57;15.07;;;9.00;99.90;;;;;;5061327;28;20467;-69
2021/10/01 02:20:37;;;;;;;17.40;15.63;;;9.00;99.90;;;;;;5060222;28;20502;-70
2021/10/01 02:23:07;;;;;;;17.47;15.40;;;9.10;99.90;;;;;;5057159;28;21131;-68
2021/10/01 02:28:31;;;;;;;16.80;15.37;;;9.20;99.90;;;;;;5063700;28;20921;-71
2021/10/01 02:31:01;;;;;;;15.57;14.47;;;9.30;99.90;;;;;;5064261;28;20471;-68
2021/10/01 02:33:34;;;;;;;17.00;15.43;;;9.40;99.90;;;;;;5063103;28;20489;-69
2021/10/01 02:36:01;;;;;;;16.40;14.97;;;9.40;99.90;;;;;;5058313;28;20452;-68
2021/10/01 02:38:31;;;;;;;16.47;15.23;;;9.40;99.90;;;;;;5060034;28;20455;-68
2021/10/01 02:40:59;;;;;;;17.03;15.47;;;9.30;99.90;;;;;;5058154;28;20494;-68
2021/10/01 02:43:27;;;;;;;15.10;14.23;;;9.40;99.90;;;;;;5065226;28;20514;-69
2021/10/01 02:45:54;;;;;;;17.17;15.30;;;9.40;99.90;;;;;;5055615;28;20981;-69
2021/10/01 02:48:24;;;;;;;16.50;15.00;;;9.40;99.90;;;;;;5061598;28;20469;-71
2021/10/01 02:50:56;;;;;;;16.83;15.40;;;9.40;99.90;;;;;;5057617;28;20547;-68
2021/10/01 02:53:30;;;;;;;16.73;15.10;;;9.40;99.90;;;;;;5056612;28;20488;-68
2021/10/01 02:56:03;;;;;;;16.00;14.80;;;9.40;99.90;;;;;;5064446;28;20836;-68
2021/10/01 02:58:38;;;;;;;16.37;15.37;;;9.40;99.90;;;;;;5058190;28;20487;-70
2021/10/01 03:01:07;;;;;;;16.27;14.80;;;9.40;99.90;;;;;;5062669;28;20572;-69
2021/10/01 03:03:37;;;;;;;16.17;14.97;;;9.40;99.90;;;;;;5065981;28;20447;-71
2021/10/01 03:06:06;;;;;;;16.57;15.37;;;9.30;99.90;;;;;;5062769;28;20819;-70
2021/10/01 03:08:33;;;;;;;16.87;15.10;;;9.30;99.90;;;;;;5059120;28;20461;-69
2021/10/01 03:11:10;;;;;;;16.13;14.90;;;9.30;99.90;;;;;;5059235;28;20494;-69
2021/10/01 03:13:41;;;;;;;15.77;14.77;;;9.30;99.90;;;;;;5060922;28;20467;-71
2021/10/01 03:16:09;;;;;;;17.13;15.80;;;9.30;99.90;;;;;;5059921;28;20475;-71
2021/10/01 03:18:39;;;;;;;16.43;15.27;;;9.30;99.90;;;;;;5059358;28;20462;-69
2021/10/01 03:21:07;;;;;;;15.20;14.20;;;9.40;99.90;;;;;;5056223;28;20482;-72
2021/10/01 03:23:35;;;;;;;15.87;14.77;;;9.40;99.90;;;;;;5059449;28;20469;-70
2021/10/01 03:26:04;;;;;;;15.87;14.97;;;9.40;99.90;;;;;;5057645;28;20478;-71
2021/10/01 03:28:32;;;;;;;16.47;15.17;;;9.40;99.90;;;;;;5060669;28;20935;-71
2021/10/01 03:31:02;;;;;;;16.13;14.80;;;9.40;99.90;;;;;;5061522;28;20455;-69
2021/10/01 03:33:29;;;;;;;16.07;14.60;;;9.40;99.90;;;;;;5056792;28;20495;-70
2021/10/01 03:35:56;;;;;;;16.00;14.80;;;9.50;99.90;;;;;;5061319;28;20519;-70
2021/10/01 03:38:24;;;;;;;15.77;14.77;;;9.50;99.90;;;;;;5058521;28;20459;-70
2021/10/01 03:40:53;;;;;;;15.40;14.57;;;9.50;99.90;;;;;;5057764;28;20949;-69
2021/10/01 03:43:24;;;;;;;15.93;14.93;;;9.60;99.90;;;;;;5063750;28;20952;-72
2021/10/01 03:45:51;;;;;;;14.73;14.00;;;9.60;99.90;;;;;;5059008;28;20462;-70
2021/10/01 03:48:19;;;;;;;15.80;14.50;;;9.70;99.90;;;;;;5060722;28;21272;-72
2021/10/01 03:50:46;;;;;;;15.77;14.73;;;9.80;99.90;;;;;;5062326;28;20462;-70
2021/10/01 03:53:15;;;;;;;16.60;15.40;;;9.90;99.90;;;;;;5060352;28;20471;-69
2021/10/01 03:55:42;;;;;;;16.17;14.90;;;9.90;99.90;;;;;;5055756;28;20454;-70
2021/10/01 03:58:10;;;;;;;17.70;15.73;;;10.00;99.90;;;;;;5059389;28;20546;-70
2021/10/01 04:00:38;;;;;;;16.33;15.30;;;10.10;99.90;;;;;;5059019;28;20518;-69
2021/10/01 04:03:05;;;;;;;15.67;14.77;;;10.10;99.90;;;;;;5054423;28;20799;-69
2021/10/01 04:05:32;;;;;;;16.10;14.83;;;10.10;99.90;;;;;;5056642;28;20450;-69
2021/10/01 04:07:59;;;;;;;16.10;15.03;;;10.10;99.90;;;;;;5053776;28;20451;-71
2021/10/01 04:10:26;;;;;;;17.20;15.80;;;10.20;99.90;;;;;;5058750;28;20460;-70
2021/10/01 04:12:53;;;;;;;16.00;14.90;;;10.20;99.90;;;;;;5059416;28;20472;-69
2021/10/01 04:15:20;;;;;;;16.57;15.53;;;10.20;99.90;;;;;;5059729;28;20466;-69
2021/10/01 04:17:49;;;;;;;16.40;15.50;;;10.20;99.90;;;;;;5057917;28;20847;-71
2021/10/01 04:20:18;;;;;;;16.47;15.27;;;10.10;99.90;;;;;;5057931;28;20482;-68
2021/10/01 04:22:46;;;;;;;16.47;15.37;;;10.00;99.90;;;;;;5058637;28;20461;-69
2021/10/01 04:25:13;;;;;;;16.43;14.87;;;10.00;99.90;;;;;;5058016;28;20502;-69
2021/10/01 04:27:41;;;;;;;16.57;15.13;;;10.00;99.90;;;;;;5066124;28;20462;-69
2021/10/01 04:30:09;;;;;;;17.33;15.63;;;10.00;99.90;;;;;;5057304;28;20459;-69
2021/10/01 04:32:39;;;;;;;15.70;14.90;;;9.90;99.90;;;;;;5058047;28;20534;-69
2021/10/01 04:35:09;;;;;;;16.37;15.27;;;9.90;99.90;;;;;;5052731;28;20461;-70
2021/10/01 04:37:36;;;;;;;17.40;16.17;;;9.90;99.90;;;;;;5061574;28;20454;-69
2021/10/01 04:40:04;;;;;;;16.83;15.73;;;9.80;99.90;;;;;;5058869;28;20849;-71
2021/10/01 04:42:31;;;;;;;16.97;15.77;;;9.70;99.90;;;;;;5061708;28;20703;-69
2021/10/01 04:44:58;;;;;;;17.20;15.90;;;9.70;99.90;;;;;;5058344;28;20975;-70
2021/10/01 04:47:25;;;;;;;16.47;15.40;;;9.60;99.90;;;;;;5058416;28;20953;-69
2021/10/01 04:49:51;;;;;;;15.47;14.60;;;9.60;99.90;;;;;;5062543;28;20815;-69
2021/10/01 04:52:20;;;;;;;16.13;15.10;;;9.50;99.90;;;;;;5056928;28;20467;-69
2021/10/01 04:54:46;;;;;;;16.40;15.40;;;9.50;99.90;;;;;;5057460;28;20451;-69
2021/10/01 04:57:14;;;;;;;16.37;15.13;;;9.50;99.90;;;;;;5063944;28;20469;-69
2021/10/01 04:59:40;;;;;;;16.23;15.37;;;9.40;99.90;;;;;;5056382;28;20466;-69
2021/10/01 05:02:07;;;;;;;16.30;15.40;;;9.40;99.90;;;;;;5060053;28;20467;-72
2021/10/01 05:04:34;;;;;;;16.30;15.10;;;9.40;99.90;;;;;;5058806;28;20454;-69
2021/10/01 05:07:01;;;;;;;17.43;15.77;;;9.40;99.90;;;;;;5058668;28;20493;-72
2021/10/01 05:09:30;;;;;;;16.60;15.33;;;9.30;99.90;;;;;;5064839;28;21233;-69
2021/10/01 05:11:56;;;;;;;16.07;14.90;;;9.30;99.90;;;;;;5060118;28;20574;-70
2021/10/01 05:14:23;;;;;;;15.60;14.53;;;9.20;99.90;;;;;;5065930;28;20464;-69
2021/10/01 05:16:50;;;;;;;15.70;15.00;;;9.30;99.90;;;;;;5064539;28;20477;-72
2021/10/01 05:19:17;;;;;;;16.33;15.37;;;9.20;99.90;;;;;;5060873;28;20473;-72
2021/10/01 05:21:44;;;;;;;15.90;15.10;;;9.10;99.90;;;;;;5065142;28;21039;-71
2021/10/01 05:24:14;;;;;;;15.97;14.90;;;9.10;99.90;;;;;;5067071;28;20479;-70
2021/10/01 05:26:43;;;;;;;15.40;14.50;;;9.00;99.90;;;;;;5065240;28;20457;-68
2021/10/01 05:29:11;;;;;;;16.60;15.60;;;9.00;99.90;;;;;;5061962;28;20449;-71
2021/10/01 05:31:38;;;;;;;15.03;14.03;;;9.00;99.90;;;;;;5058948;28;20470;-69
2021/10/01 05:34:05;;;;;;;15.73;14.73;;;9.00;99.90;;;;;;5061806;28;20465;-69
2021/10/01 05:36:34;;;;;;;16.40;15.40;;;9.00;99.90;;;;;;5064261;28;20765;-70
2021/10/01 05:39:01;;;;;;;16.77;15.30;;;9.00;99.90;;;;;;5059226;28;20456;-71
2021/10/01 05:41:30;;;;;;;15.37;14.53;;;9.00;99.90;;;;;;5063070;28;20477;-70
2021/10/01 05:44:00;;;;;;;16.40;15.10;;;9.00;99.90;;;;;;5058956;28;20956;-71
2021/10/01 05:46:28;;;;;;;15.43;14.53;;;9.00;99.90;;;;;;5059526;28;20831;-70
2021/10/01 05:48:58;;;;;;;17.87;15.60;;;9.10;99.90;;;;;;5061578;28;20592;-69
2021/10/01 05:51:28;;;;;;;15.70;14.80;;;9.10;99.90;;;;;;5061770;28;20530;-71
2021/10/01 05:56:39;;;;;;;17.03;15.47;;;9.10;99.90;;;;;;5060078;28;20465;-70
2021/10/01 05:59:11;;;;;;;16.70;15.57;;;9.20;99.90;;;;;;5056846;28;20459;-70
2021/10/01 06:01:38;;;;;;;17.40;15.60;;;9.20;99.90;;;;;;5057551;28;20842;-69
2021/10/01 06:04:06;;;;;;;16.97;15.60;;;9.30;99.90;;;;;;5058471;28;20469;-70
2021/10/01 06:06:33;;;;;;;17.10;15.47;;;9.40;99.90;;;;;;5060092;28;21012;-69
2021/10/01 06:09:00;;;;;;;17.10;15.73;;;9.40;99.90;;;;;;5062142;28;20469;-70
2021/10/01 06:11:27;;;;;;;17.07;15.70;;;9.50;99.90;;;;;;5058689;28;20502;-69
2021/10/01 06:13:54;;;;;;;16.70;15.60;;;9.60;99.90;;;;;;5056210;28;20462;-71
2021/10/01 06:16:23;;;;;;;16.30;14.97;;;9.70;99.90;;;;;;5057293;28;20559;-73
2021/10/01 06:18:50;;;;;;;17.00;15.77;;;9.80;99.90;;;;;;5064705;28;22406;-71
2021/10/01 06:21:17;;;;;;;16.50;15.60;;;9.90;99.90;;;;;;5060764;28;20484;-68
2021/10/01 06:23:44;;;;;;;16.97;15.97;;;10.00;99.90;;;;;;5059392;28;20749;-72
2021/10/01 06:26:11;;;;;;;16.80;15.90;;;10.10;99.90;;;;;;5061429;28;20487;-71
2021/10/01 06:28:39;;;;;;;17.10;15.63;;;10.20;99.90;;;;;;5056836;28;20471;-69
2021/10/01 06:31:06;;;;;;;17.43;16.10;;;10.20;99.90;;;;;;5055896;28;20979;-69
2021/10/01 06:33:35;;;;;;;18.00;16.50;;;10.30;99.90;;;;;;5060491;28;20469;-70
2021/10/01 06:36:03;;;;;;;17.43;15.90;;;10.30;99.90;;;;;;5057558;28;20462;-71
2021/10/01 06:38:31;;;;;;;18.53;17.03;;;10.50;99.90;;;;;;5058243;28;20471;-70
2021/10/01 06:40:59;;;;;;;17.37;15.87;;;10.60;99.90;;;;;;5060897;28;20479;-69
2021/10/01 06:43:26;;;;;;;17.63;16.43;;;10.60;99.90;;;;;;5059583;28;20513;-70
2021/10/01 06:45:55;;;;;;;17.03;15.23;;;10.70;99.90;;;;;;5061881;28;20458;-72
2021/10/01 06:48:30;;;;;;;15.83;14.80;;;10.70;99.90;;;;;;5061274;28;20471;-70
2021/10/01 07:35:26;;;;;;;17.70;15.17;;;13.30;99.90;;;;;;5051947;28;20473;-70
2021/10/01 08:19:15;;;;;;;22.13;16.27;;;16.10;99.90;;;;;;5056601;28;20776;-70
2021/10/01 08:21:42;;;;;;;19.33;16.07;;;16.30;99.90;;;;;;5054467;28;20475;-70
2021/10/01 08:24:09;;;;;;;16.97;15.30;;;16.40;99.90;;;;;;5051435;28;20464;-69
2021/10/01 08:26:36;;;;;;;16.60;15.57;;;16.30;99.90;;;;;;5051524;28;20859;-69
2021/10/01 08:29:04;;;;;;;17.20;15.50;;;16.50;99.90;;;;;;5052947;28;20471;-70
2021/10/01 08:31:31;;;;;;;22.20;17.07;;;16.40;99.90;;;;;;5055602;28;20474;-69
2021/10/01 08:33:59;;;;;;;19.53;15.70;;;16.50;99.90;;;;;;5055266;28;20451;-70
2021/10/01 08:36:27;;;;;;;17.63;15.23;;;16.30;99.90;;;;;;5049019;28;20575;-72
2021/10/01 08:38:54;;;;;;;17.17;15.60;;;16.20;99.90;;;;;;5053705;28;21238;-70
2021/10/01 08:41:22;;;;;;;19.30;15.93;;;16.20;99.90;;;;;;5055726;28;20487;-69
2021/10/01 08:43:50;;;;;;;17.37;15.57;;;15.90;99.90;;;;;;5050295;28;20467;-72
2021/10/01 08:46:18;;;;;;;15.50;14.07;;;15.80;99.90;;;;;;5052427;28;20485;-70
2021/10/01 08:48:46;;;;;;;14.80;13.90;;;15.70;99.90;;;;;;5064071;28;20801;-70
2021/10/01 08:51:15;;;;;;;15.67;14.77;;;15.50;99.90;;;;;;5055994;28;20710;-71
2021/10/01 08:53:43;;;;;;;15.80;14.70;;;15.50;99.90;;;;;;5054931;28;20463;-69
2021/10/01 08:56:10;;;;;;;15.97;14.70;;;15.30;99.90;;;;;;5056687;28;21063;-69
2021/10/01 08:58:37;;;;;;;15.07;14.00;;;15.50;99.90;;;;;;5060423;28;20875;-69
2021/10/01 09:01:05;;;;;;;15.13;14.13;;;15.50;99.90;;;;;;5059089;28;20511;-70
2021/10/01 09:03:33;;;;;;;14.83;14.00;;;15.50;99.90;;;;;;5064931;28;20984;-69
2021/10/01 09:06:01;;;;;;;16.57;15.40;;;15.60;99.90;;;;;;5057871;28;20450;-71
2021/10/01 09:08:29;;;;;;;15.87;14.70;;;15.70;99.90;;;;;;5055629;28;20455;-70
2021/10/01 09:10:58;;;;;;;15.50;14.50;;;15.90;99.90;;;;;;5058594;28;20875;-70
2021/10/01 09:13:25;;;;;;;14.53;13.67;;;16.00;99.90;;;;;;5064752;28;20963;-70
2021/10/01 09:16:00;;;;;;;15.27;14.00;;;16.00;99.90;;;;;;5060690;28;20483;-70
2021/10/01 09:18:28;;;;;;;15.87;14.43;;;16.30;99.90;;;;;;5058446;28;20503;-70
2021/10/01 09:21:07;;;;;;;14.10;13.30;;;16.50;99.90;;;;;;5055937;28;20502;-70
2021/10/01 09:23:41;;;;;;;15.17;13.87;;;16.80;99.90;;;;;;5051506;28;20461;-71
2021/10/01 09:26:09;;;;;;;14.47;13.67;;;16.80;99.90;;;;;;5059935;28;20462;-72
2021/10/01 09:28:49;;;;;;;14.50;13.57;;;16.90;99.90;;;;;;5056560;28;20458;-72
2021/10/01 09:31:33;;;;;;;15.77;14.20;;;17.00;99.90;;;;;;5062164;28;20459;-71
2021/10/01 09:34:01;;;;;;;15.17;14.20;;;16.70;99.90;;;;;;5056762;28;20479;-68
2021/10/01 09:36:30;;;;;;;14.90;13.53;;;16.90;99.90;;;;;;5058057;28;20573;-69
2021/10/01 09:38:58;;;;;;;15.10;14.00;;;16.90;99.90;;;;;;5058065;28;20451;-69
2021/10/01 09:41:28;;;;;;;16.17;14.33;;;17.20;99.90;;;;;;5054163;28;20483;-68
2021/10/01 09:44:14;;;;;;;14.30;13.20;;;17.50;99.90;;;;;;5058022;28;20787;-70
2021/10/01 09:46:43;;;;;;;16.07;14.80;;;18.30;99.90;;;;;;5060098;28;20508;-69
2021/10/01 09:49:14;;;;;;;15.30;14.20;;;18.70;99.90;;;;;;5057337;28;20455;-69
2021/10/01 09:51:49;;;;;;;15.70;14.40;;;19.10;99.90;;;;;;5063250;28;20871;-71
2021/10/01 09:54:17;;;;;;;14.60;13.60;;;19.80;99.90;;;;;;5058626;28;20813;-70
2021/10/01 09:56:44;;;;;;;15.57;14.13;;;20.20;99.90;;;;;;5057173;28;20456;-69
2021/10/01 09:59:15;;;;;;;18.07;13.87;;;20.60;99.90;;;;;;5068962;28;20486;-70
2021/10/01 10:02:02;;;;;;;16.27;14.60;;;20.90;99.90;;;;;;5057035;28;20491;-71
2021/10/01 10:04:31;;;;;;;14.77;13.63;;;21.00;99.90;;;;;;5065551;28;20463;-70
2021/10/01 10:07:25;;;;;;;14.67;13.90;;;20.90;99.90;;;;;;5056310;28;20455;-69
2021/10/01 10:09:54;;;;;;;14.03;13.27;;;21.00;99.90;;;;;;5056664;28;20942;-68
2021/10/01 10:12:34;;;;;;;14.90;13.87;;;20.90;99.90;;;;;;5061636;28;20483;-69
2021/10/01 10:15:02;;;;;;;15.33;14.33;;;20.80;99.90;;;;;;5058656;28;20459;-71
2021/10/01 10:17:31;;;;;;;15.50;14.33;;;20.90;99.90;;;;;;5052688;28;20486;-69
2021/10/01 10:20:00;;;;;;;15.20;14.20;;;21.00;99.90;;;;;;5061185;28;20454;-69
2021/10/01 10:22:31;;;;;;;14.53;13.83;;;21.10;99.90;;;;;;5060767;28;21015;-69
2021/10/01 10:24:59;;;;;;;14.40;13.63;;;21.30;99.90;;;;;;5060206;28;20461;-71
2021/10/01 10:27:28;;;;;;;14.43;13.53;;;21.70;99.90;;;;;;5056398;28;20471;-72
2021/10/01 10:29:55;;;;;;;15.20;13.70;;;22.10;99.70;;;;;;5058321;28;20470;-70
2021/10/01 10:32:29;;;;;;;13.80;13.20;;;22.00;99.30;;;;;;5058640;28;20456;-72
2021/10/01 10:34:58;;;;;;;14.23;13.47;;;21.80;99.20;;;;;;5053369;28;20459;-70
2021/10/01 10:37:40;;;;;;;14.50;13.50;;;21.30;99.30;;;;;;5055632;28;21038;-72
2021/10/01 10:40:09;;;;;;;14.47;13.70;;;20.70;99.70;;;;;;5061401;28;20491;-70
2021/10/01 10:42:38;;;;;;;14.70;13.97;;;20.30;99.90;;;;;;5051885;28;20491;-72
2021/10/01 10:45:15;;;;;;;15.53;14.30;;;20.20;99.90;;;;;;5049214;28;20460;-71
2021/10/01 10:47:58;;;;;;;14.30;13.70;;;20.40;99.90;;;;;;5053090;28;21343;-71
2021/10/01 10:50:55;;;;;;;14.77;13.50;;;20.70;99.90;;;;;;5049866;28;20469;-70
2021/10/01 10:53:33;;;;;;;21.53;13.57;;;21.10;99.90;;;;;;5052481;28;20553;-70
2021/10/01 10:56:10;;;;;;;14.97;14.17;;;21.50;99.80;;;;;;5056203;28;20502;-70
2021/10/01 10:58:45;;;;;;;15.60;14.20;;;21.70;99.80;;;;;;5053422;28;20471;-70
2021/10/01 11:01:39;;;;;;;15.03;14.20;;;22.00;99.20;;;;;;5058974;28;20533;-70
2021/10/01 11:04:38;;;;;;;14.93;13.93;;;22.40;98.30;;;;;;5052579;28;20459;-70
2021/10/01 11:07:06;;;;;;;15.10;14.20;;;22.90;98.10;;;;;;5055597;28;20455;-71
2021/10/01 11:09:36;;;;;;;15.13;13.73;;;23.00;97.50;;;;;;5053365;28;20494;-70
2021/10/01 11:12:22;;;;;;;14.47;13.37;;;22.90;96.40;;;;;;5056863;28;20528;-70
2021/10/01 11:15:13;;;;;;;15.23;13.90;;;23.00;96.00;;;;;;5047919;28;20533;-72
2021/10/01 11:17:42;;;;;;;14.70;13.60;;;22.50;96.10;;;;;;5056328;28;20483;-72
2021/10/01 11:20:09;;;;;;;14.73;13.60;;;22.60;96.00;;;;;;5054341;28;20980;-70
2021/10/01 11:22:38;;;;;;;14.90;14.10;;;22.70;95.90;;;;;;5059645;28;20479;-72
2021/10/01 11:25:14;;;;;;;16.23;14.40;;;23.00;95.10;;;;;;5054181;28;20460;-71
2021/10/01 11:28:02;;;;;;;14.80;13.80;;;22.60;95.30;;;;;;5055738;28;20447;-71
2021/10/01 11:30:37;;;;;;;15.60;14.43;;;22.90;95.40;;;;;;5045330;28;20942;-70
2021/10/01 11:33:08;;;;;;;14.97;13.90;;;23.10;94.90;;;;;;5051551;28;20462;-70
2021/10/01 11:35:46;;;;;;;14.37;13.57;;;23.00;94.80;;;;;;5055871;28;20459;-71
2021/10/01 11:38:25;;;;;;;15.57;14.50;;;23.20;94.50;;;;;;5060614;28;20460;-71
2021/10/01 11:41:14;;;;;;;15.27;14.37;;;23.00;93.70;;;;;;5057984;28;20463;-70
2021/10/01 11:43:53;;;;;;;14.53;13.53;;;22.90;93.90;;;;;;5055596;28;20474;-70
2021/10/01 11:46:31;;;;;;;14.13;13.40;;;22.90;94.00;;;;;;5053561;28;20465;-71
2021/10/01 11:49:02;;;;;;;14.93;13.90;;;22.70;93.80;;;;;;5051852;28;20463;-70
2021/10/01 11:51:29;;;;;;;14.50;13.67;;;22.30;94.10;;;;;;5051143;28;20872;-70
2021/10/01 11:54:07;;;;;;;14.47;13.60;;;22.80;94.50;;;;;;5056056;28;20965;-71
2021/10/01 11:56:36;;;;;;;14.00;13.13;;;22.50;94.20;;;;;;5043087;28;20490;-70
2021/10/01 11:59:03;;;;;;;13.80;13.00;;;22.70;94.40;;;;;;5054789;28;20452;-70
2021/10/01 12:01:30;;;;;;;17.70;15.00;;;23.20;93.90;;;;;;5050835;28;20463;-70
2021/10/01 12:03:59;;;;;;;14.87;13.70;;;23.40;93.50;;;;;;5053960;28;20459;-72
2021/10/01 12:06:28;;;;;;;14.70;13.63;;;23.80;94.00;;;;;;5049824;28;20915;-70
2021/10/01 12:08:56;;;;;;;15.40;14.50;;;24.10;93.50;;;;;;5056303;28;20463;-70
2021/10/01 12:11:28;;;;;;;14.50;13.70;;;24.40;92.90;;;;;;5062122;28;20485;-71
2021/10/01 12:14:09;;;;;;;15.63;14.20;;;24.00;90.80;;;;;;5058314;28;20455;-71
2021/10/01 12:16:39;;;;;;;15.17;14.20;;;24.20;90.70;;;;;;5056476;28;20481;-72
2021/10/01 12:19:06;;;;;;;15.37;14.03;;;24.20;90.80;;;;;;5046448;28;20516;-70
2021/10/01 12:21:35;;;;;;;14.63;13.80;;;24.10;91.10;;;;;;5052616;28;20466;-71
2021/10/01 12:24:09;;;;;;;15.20;14.40;;;24.30;90.70;;;;;;5051704;28;20533;-70
2021/10/01 12:26:38;;;;;;;14.90;14.00;;;24.50;90.20;;;;;;5053921;28;20465;-70
2021/10/01 12:29:15;;;;;;;14.90;13.80;;;24.20;90.40;;;;;;5052404;28;20459;-72
2021/10/01 12:31:45;;;;;;;14.37;13.67;;;23.80;89.20;;;;;;5054603;28;20548;-71
2021/10/01 12:34:18;;;;;;;14.87;13.77;;;24.00;90.10;;;;;;5052095;28;20467;-70
2021/10/01 12:36:49;;;;;;;15.07;14.10;;;23.70;89.70;;;;;;5053856;28;20450;-72
2021/10/01 12:39:17;;;;;;;13.80;13.00;;;23.70;91.00;;;;;;5053194;28;20460;-71
2021/10/01 12:41:45;;;;;;;15.13;14.10;;;23.70;90.20;;;;;;5055993;28;20458;-72
2021/10/01 12:44:16;;;;;;;14.23;13.43;;;23.90;90.60;;;;;;5054703;28;20458;-71
2021/10/01 12:46:46;;;;;;;15.70;14.50;;;23.70;90.10;;;;;;5047294;28;20467;-71
2021/10/01 12:49:20;;;;;;;14.00;13.30;;;23.70;90.40;;;;;;5057084;28;21020;-71
2021/10/01 12:52:07;;;;;;;14.13;13.43;;;23.80;89.70;;;;;;5055029;28;20464;-70
2021/10/01 12:54:36;;;;;;;14.23;13.20;;;23.70;89.30;;;;;;5054051;28;20459;-71
2021/10/01 12:57:12;;;;;;;14.27;13.53;;;23.70;90.30;;;;;;5061522;28;20770;-71
2021/10/01 12:59:46;;;;;;;15.23;14.40;;;23.60;90.00;;;;;;5056136;28;20790;-71
2021/10/01 13:02:16;;;;;;;14.40;13.80;;;23.40;90.20;;;;;;5060067;28;20483;-71
2021/10/01 13:04:59;;;;;;;14.53;13.63;;;23.50;90.40;;;;;;5059519;28;20828;-72
2021/10/01 13:07:31;;;;;;;14.63;13.93;;;23.30;89.40;;;;;;5064572;28;21048;-71
2021/10/01 13:10:01;;;;;;;14.50;13.67;;;23.00;88.20;;;;;;5061427;28;20470;-72
2021/10/01 13:12:31;;;;;;;15.00;14.20;;;22.80;88.50;;;;;;5058580;28;20556;-72
2021/10/01 13:15:11;;;;;;;14.20;13.40;;;22.90;89.30;;;;;;5058265;28;20458;-72
2021/10/01 13:17:39;;;;;;;14.50;13.70;;;22.70;89.40;;;;;;5052467;28;20561;-71
2021/10/01 13:20:08;;;;;;;14.50;13.70;;;22.60;90.50;;;;;;5055839;28;20464;-72
2021/10/01 13:23:00;;;;;;;14.40;13.50;;;22.60;90.30;;;;;;5057190;28;20498;-72
2021/10/01 13:25:30;;;;;;;14.40;13.70;;;22.90;89.00;;;;;;5056256;28;20452;-72
2021/10/01 13:27:59;;;;;;;14.77;13.87;;;23.10;89.40;;;;;;5060801;28;20786;-71
2021/10/01 13:30:28;;;;;;;14.00;13.30;;;23.00;89.60;;;;;;5053048;28;20460;-71
2021/10/01 13:32:56;;;;;;;14.83;13.93;;;23.20;90.00;;;;;;5057722;28;20473;-72
2021/10/01 13:35:25;;;;;;;14.60;13.67;;;23.00;89.80;;;;;;5055477;28;21047;-71
2021/10/01 13:37:53;;;;;;;14.27;13.57;;;23.00;89.70;;;;;;5060384;28;20466;-72
2021/10/01 13:40:22;;;;;;;13.97;13.20;;;22.80;90.30;;;;;;5065622;28;20485;-72
2021/10/01 13:42:51;;;;;;;13.93;13.23;;;22.90;90.90;;;;;;5060588;28;20481;-72
2021/10/01 13:45:18;;;;;;;14.30;13.40;;;22.60;90.20;;;;;;5057309;28;20471;-72
2021/10/01 13:47:46;;;;;;;14.93;13.70;;;22.60;91.00;;;;;;5058468;28;20817;-72
2021/10/01 13:50:14;;;;;;;14.20;13.50;;;22.60;90.60;;;;;;5067414;28;20485;-72
2021/10/01 13:52:41;;;;;;;14.47;13.53;;;22.30;90.60;;;;;;5054520;28;20464;-71
2021/10/01 13:55:10;;;;;;;14.40;13.80;;;22.30;91.00;;;;;;5062671;28;20455;-72
2021/10/01 13:57:38;;;;;;;14.83;13.80;;;22.10;90.70;;;;;;5058363;28;20455;-72
2021/10/01 14:00:08;;;;;;;14.73;13.93;;;21.60;91.40;;;;;;5066193;28;20460;-71
2021/10/01 14:02:37;;;;;;;15.87;14.43;;;21.70;91.10;;;;;;5063492;28;20969;-71
2021/10/01 14:05:08;;;;;;;14.93;14.13;;;21.50;91.30;;;;;;5063298;28;20443;-72
2021/10/01 14:07:38;;;;;;;15.53;14.60;;;21.50;92.10;;;;;;5057932;28;20490;-71
2021/10/01 14:10:08;;;;;;;15.00;14.10;;;21.20;92.20;;;;;;5057892;28;20478;-72
2021/10/01 14:12:35;;;;;;;14.17;13.47;;;21.20;92.30;;;;;;5058436;28;20473;-73
2021/10/01 14:15:04;;;;;;;14.40;13.63;;;21.20;92.10;;;;;;5063676;28;20458;-71
2021/10/01 14:17:31;;;;;;;14.87;14.07;;;21.20;92.80;;;;;;5064819;28;20981;-72